Sawyer International Airport Marquette US
ICAO: KSAW
IATA: SAW
Category: Medium
Scheduled Services: No

Elevation: 1221 ft
TransAlt. 18000 ft.

Airport Communications:
AWOS 3:118.375
MINNEAPOLIS CNTR:119.1
CTAF:119.975
GND:121.65
GREEN BAY RDO:123.6
TWR:119.975
UNICOM:122.7

KSAW Zoom In..

Runways:

(A) RW 01 length 12366 ft width 150 ft
ILS 110.10 / hdg 13

(B) RW 19 length 12366 ft width 150 ft
---- / hdg 193

Location; KSAW
Day. 24 / Time. 12.46 Zulu
* Altimeter: 30.15
* Temperature: 20° c. 68°f.
* Wind from: 250° Speed 04 kn.
Dewpoint: 14° c.
Visibility: 10 Statute Miles.
Clouds: Clear (manual report).

KSAW 241246Z 25004KT 10SM SKC 20/14 A3015


Wind From 250°
Speed 04 kn.

 
 
jpsmedia.com for Web Design SOUNDCLOUD worldairports.se 2018   terms of use